Time;durP1;ratioP1;P1;durP2;ratioP2;P2;SDS_P1;SDS_P2;PMS_P1;PMS_P2;Temp;Humidity;BMP_temperature;BMP_pressure;BME280_temperature;BME280_humidity;BME280_pressure;Samples;Min_cycle;Max_cycle;Signal;HPM_P1;HPM_P2
2022/01/23 00:00:05;;;;;;;311.63;61.72;;;;;;;-1.16;76.47;100073.22;340051;28;1222;-68
2022/01/23 00:00:19;;;;;;;310.90;60.78;;;;;;;-1.16;76.29;100078.34;339268;29;1360;-68
2022/01/23 00:00:32;;;;;;;309.98;60.50;;;;;;;-1.16;76.56;100071.50;339258;29;1427;-68
2022/01/23 00:00:44;;;;;;;310.05;60.75;;;;;;;-1.14;76.32;100079.25;339075;29;1067;-68
2022/01/23 00:00:57;;;;;;;311.60;60.60;;;;;;;-1.14;76.44;100074.09;339289;28;1276;-68
2022/01/23 00:01:10;;;;;;;313.88;61.10;;;;;;;-1.14;76.45;100074.09;340333;28;1444;-69
2022/01/23 00:01:21;;;;;;;314.30;61.80;;;;;;;-1.14;76.40;100074.97;340694;28;1363;-69
2022/01/23 00:01:36;;;;;;;312.23;61.17;;;;;;;-1.14;76.24;100072.41;340195;28;1340;-70
2022/01/23 00:02:02;;;;;;;311.73;61.13;;;;;;;-1.15;76.46;100080.09;341969;28;1312;-69
2022/01/23 00:02:19;;;;;;;312.48;61.00;;;;;;;-1.17;76.72;100082.63;341665;28;951;-68
2022/01/23 00:02:33;;;;;;;313.80;62.47;;;;;;;-1.17;76.46;100077.50;341125;28;1067;-68
2022/01/23 00:02:44;;;;;;;314.05;62.33;;;;;;;-1.18;76.01;100075.75;340146;28;1323;-68
2022/01/23 00:02:59;;;;;;;313.10;62.25;;;;;;;-1.19;76.53;100076.59;339138;29;870;-68
2022/01/23 00:03:16;;;;;;;313.35;61.65;;;;;;;-1.23;76.56;100074.84;339400;29;961;-68
2022/01/23 00:03:27;;;;;;;312.77;61.42;;;;;;;-1.25;76.83;100084.22;338021;29;850;-68
2022/01/23 00:03:44;;;;;;;313.25;62.28;;;;;;;-1.24;76.36;100077.38;340259;28;2027;-68
2022/01/23 00:03:54;;;;;;;313.27;62.03;;;;;;;-1.24;76.81;100073.09;339385;29;831;-68
2022/01/23 00:04:05;;;;;;;312.00;61.60;;;;;;;-1.28;77.01;100075.59;339563;28;1498;-69
2022/01/23 00:04:16;;;;;;;312.63;61.20;;;;;;;-1.27;77.13;100078.19;339231;28;1258;-68
2022/01/23 00:04:27;;;;;;;312.88;61.53;;;;;;;-1.26;77.13;100076.50;337861;29;1319;-68
2022/01/23 00:04:38;;;;;;;314.08;61.38;;;;;;;-1.25;77.12;100079.09;339113;28;1468;-68
2022/01/23 00:04:48;;;;;;;313.83;61.27;;;;;;;-1.23;76.88;100079.97;338978;28;1480;-70
2022/01/23 00:05:05;;;;;;;313.17;60.65;;;;;;;-1.23;77.01;100085.09;337582;29;1582;-69
2022/01/23 00:05:16;;;;;;;315.63;62.08;;;;;;;-1.22;76.71;100079.13;339092;29;1444;-69
2022/01/23 00:05:34;;;;;;;317.02;62.47;;;;;;;-1.23;76.31;100084.25;340313;28;890;-69
2022/01/23 00:05:45;;;;;;;314.48;62.00;;;;;;;-1.24;76.85;100085.09;340161;28;1297;-69
2022/01/23 00:05:57;;;;;;;312.90;62.18;;;;;;;-1.25;77.01;100081.66;338073;29;914;-69
2022/01/23 00:06:07;;;;;;;312.00;62.05;;;;;;;-1.25;76.69;100085.94;340354;28;1555;-69
2022/01/23 00:06:18;;;;;;;312.55;62.25;;;;;;;-1.26;76.94;100084.19;338526;29;1511;-69
2022/01/23 00:06:28;;;;;;;313.73;62.30;;;;;;;-1.28;76.60;100084.19;338854;28;1213;-69
2022/01/23 00:06:39;;;;;;;313.60;61.65;;;;;;;-1.27;76.48;100077.34;338756;29;1338;-69
2022/01/23 00:06:49;;;;;;;313.93;61.40;;;;;;;-1.28;76.46;100086.75;340457;28;1463;-69
2022/01/23 00:07:03;;;;;;;313.58;62.22;;;;;;;-1.28;76.60;100085.88;340510;28;1424;-69
2022/01/23 00:07:15;;;;;;;314.15;62.95;;;;;;;-1.29;77.16;100079.88;337794;28;1412;-69
2022/01/23 00:07:26;;;;;;;314.85;62.63;;;;;;;-1.29;76.62;100084.16;336210;29;763;-69
2022/01/23 00:07:38;;;;;;;313.60;62.05;;;;;;;-1.30;76.91;100083.31;339740;28;1410;-69
2022/01/23 00:07:51;;;;;;;314.64;62.10;;;;;;;-1.29;76.73;100087.59;340797;28;1197;-69
2022/01/23 00:08:02;;;;;;;314.90;62.58;;;;;;;-1.32;76.72;100085.00;341487;28;1918;-69
2022/01/23 00:08:15;;;;;;;315.90;62.85;;;;;;;-1.31;76.90;100086.72;339567;28;989;-69
2022/01/23 00:08:25;;;;;;;316.05;62.55;;;;;;;-1.33;76.78;100083.28;337775;28;1343;-70
2022/01/23 00:08:35;;;;;;;314.70;61.83;;;;;;;-1.33;76.84;100088.41;340578;28;1249;-69
2022/01/23 00:08:46;;;;;;;313.63;61.35;;;;;;;-1.35;76.58;100093.53;340789;28;1273;-69
2022/01/23 00:08:56;;;;;;;314.97;62.17;;;;;;;-1.33;76.65;100093.53;341821;28;857;-69
2022/01/23 00:09:07;;;;;;;316.90;63.47;;;;;;;-1.32;77.08;100092.69;340479;28;1503;-69
2022/01/23 00:09:18;;;;;;;316.57;63.23;;;;;;;-1.32;77.05;100090.13;339348;28;1400;-69
2022/01/23 00:09:29;;;;;;;314.58;62.40;;;;;;;-1.34;76.63;100084.13;339403;29;866;-69
2022/01/23 00:09:40;;;;;;;313.38;61.58;;;;;;;-1.34;77.08;100086.69;337694;29;1391;-69
2022/01/23 00:09:50;;;;;;;313.00;61.95;;;;;;;-1.32;77.09;100100.41;339086;28;1455;-69
2022/01/23 00:10:02;;;;;;;314.23;61.90;;;;;;;-1.31;77.17;100091.00;340482;28;1343;-69
2022/01/23 00:10:12;;;;;;;314.17;61.83;;;;;;;-1.32;76.67;100085.00;341917;28;829;-69
2022/01/23 00:10:22;;;;;;;314.30;61.60;;;;;;;-1.33;76.85;100096.13;340662;28;1355;-69
2022/01/23 00:10:33;;;;;;;314.45;61.53;;;;;;;-1.37;76.81;100091.78;342495;28;1518;-69
2022/01/23 00:10:43;;;;;;;314.83;62.37;;;;;;;-1.35;76.58;100095.22;341528;28;1527;-70
2022/01/23 00:10:55;;;;;;;314.83;62.60;;;;;;;-1.31;76.67;100097.00;340658;28;1599;-69
2022/01/23 00:11:07;;;;;;;316.15;64.32;;;;;;;-1.31;76.97;100089.28;341393;28;1368;-69
2022/01/23 00:11:18;;;;;;;317.30;64.05;;;;;;;-1.29;76.81;100087.59;341261;28;1376;-70
2022/01/23 00:11:31;;;;;;;315.80;62.88;;;;;;;-1.30;77.10;100092.72;340493;28;736;-69
2022/01/23 00:11:48;;;;;;;315.92;62.14;;;;;;;-1.29;76.87;100085.00;339017;29;862;-69
2022/01/23 00:12:03;;;;;;;320.48;64.07;;;;;;;-1.30;76.82;100088.47;337798;29;1282;-70
2022/01/23 00:12:17;;;;;;;322.10;65.70;;;;;;;-1.31;76.54;100085.88;336383;29;945;-70
2022/01/23 00:12:31;;;;;;;317.70;64.63;;;;;;;-1.29;76.44;100090.16;334728;29;941;-69
2022/01/23 00:12:50;;;;;;;313.63;62.80;;;;;;;-1.27;76.12;100095.31;335826;28;1453;-69
2022/01/23 00:17:20;;;;;;;312.42;62.67;;;;;;;-1.21;75.92;100103.09;337966;29;1270;-69
2022/01/23 00:17:34;;;;;;;313.65;63.38;;;;;;;-1.24;76.49;100095.34;338648;28;1363;-68
2022/01/23 00:17:45;;;;;;;312.02;62.90;;;;;;;-1.22;76.40;100097.09;339661;28;1281;-69
2022/01/23 00:17:55;;;;;;;311.23;63.03;;;;;;;-1.21;76.35;100100.53;341361;28;1198;-68
2022/01/23 00:18:05;;;;;;;311.27;63.27;;;;;;;-1.23;76.48;100099.66;340357;28;1309;-68
2022/01/23 00:18:16;;;;;;;311.20;62.67;;;;;;;-1.24;76.12;100103.91;340752;28;1288;-68
2022/01/23 00:18:28;;;;;;;312.53;63.10;;;;;;;-1.23;76.01;100100.50;340472;28;818;-68
2022/01/23 00:18:39;;;;;;;313.42;63.78;;;;;;;-1.25;76.28;100102.19;339214;29;901;-68
2022/01/23 00:18:49;;;;;;;312.33;63.37;;;;;;;-1.26;76.37;100100.47;339469;28;1336;-69
2022/01/23 00:18:59;;;;;;;312.35;63.28;;;;;;;-1.25;75.85;100101.31;339155;29;1289;-68
2022/01/23 00:19:12;;;;;;;311.87;63.70;;;;;;;-1.28;76.00;100102.16;340618;28;1555;-68
2022/01/23 00:19:22;;;;;;;312.88;63.85;;;;;;;-1.28;76.34;100104.72;340297;28;1538;-68
2022/01/23 00:19:32;;;;;;;312.90;63.42;;;;;;;-1.28;76.05;100091.00;341846;28;1455;-68
2022/01/23 00:19:48;;;;;;;312.13;63.00;;;;;;;-1.30;76.27;100103.84;343482;28;928;-68
2022/01/23 00:19:59;;;;;;;312.10;62.95;;;;;;;-1.29;76.10;100102.97;341574;28;1558;-68
2022/01/23 00:20:11;;;;;;;311.90;62.80;;;;;;;-1.30;76.18;100103.84;342303;28;814;-69
2022/01/23 00:20:23;;;;;;;313.65;63.20;;;;;;;-1.30;76.42;100109.00;339285;28;1364;-68
2022/01/23 00:20:33;;;;;;;313.13;62.92;;;;;;;-1.29;76.11;100102.97;340506;28;1273;-68
2022/01/23 00:20:44;;;;;;;312.75;63.38;;;;;;;-1.28;75.72;100106.41;341479;28;1451;-69
2022/01/23 00:20:54;;;;;;;311.60;64.07;;;;;;;-1.29;76.01;100105.56;339236;29;966;-69
2022/01/23 00:21:04;;;;;;;311.40;63.50;;;;;;;-1.27;75.85;100103.88;338638;28;1318;-69
2022/01/23 00:21:15;;;;;;;310.70;63.53;;;;;;;-1.25;76.21;100101.31;343252;28;1296;-68
2022/01/23 00:21:25;;;;;;;310.33;62.93;;;;;;;-1.27;76.00;100101.31;340351;28;1208;-69
2022/01/23 00:21:38;;;;;;;311.63;63.55;;;;;;;-1.26;76.31;100105.59;340665;28;1310;-69
2022/01/23 00:21:52;;;;;;;314.05;63.78;;;;;;;-1.26;75.86;100100.47;339129;28;1753;-69
2022/01/23 00:22:03;;;;;;;313.42;63.30;;;;;;;-1.24;75.83;100109.06;338896;28;1538;-69
2022/01/23 00:22:13;;;;;;;312.00;63.00;;;;;;;-1.23;76.13;100105.66;340517;28;896;-69
2022/01/23 00:22:35;;;;;;;313.83;62.30;;;;;;;-1.23;76.04;100100.50;339018;28;1234;-68
2022/01/23 00:22:50;;;;;;;313.05;61.97;;;;;;;-1.23;75.99;100104.78;338240;28;1234;-69
2022/01/23 00:23:12;;;;;;;312.05;62.58;;;;;;;-1.22;75.68;100102.22;339311;28;1475;-69
2022/01/23 00:30:24;;;;;;;309.48;62.38;;;;;;;-1.35;75.23;100120.91;340364;28;767;-69
2022/01/23 00:30:35;;;;;;;308.45;61.88;;;;;;;-1.37;75.30;100122.56;341323;28;1423;-69
2022/01/23 00:30:46;;;;;;;309.55;62.38;;;;;;;-1.36;75.17;100116.59;338974;28;1421;-69
2022/01/23 00:31:00;;;;;;;309.02;62.08;;;;;;;-1.33;75.08;100119.22;336841;29;2023;-69
2022/01/23 00:31:11;;;;;;;308.92;62.03;;;;;;;-1.34;75.21;100122.63;339296;29;865;-69
2022/01/23 00:31:22;;;;;;;308.63;62.07;;;;;;;-1.33;75.43;100116.66;340200;28;1503;-69
2022/01/23 00:31:34;;;;;;;309.55;62.45;;;;;;;-1.35;74.74;100118.31;341043;28;1329;-69
2022/01/23 00:31:45;;;;;;;309.13;62.20;;;;;;;-1.35;74.93;100116.63;340496;28;1322;-69
2022/01/23 00:31:55;;;;;;;309.90;62.93;;;;;;;-1.35;75.01;100115.75;337765;28;1357;-69
2022/01/23 00:32:06;;;;;;;309.20;62.97;;;;;;;-1.34;74.58;100120.06;339957;28;1491;-69
2022/01/23 00:32:16;;;;;;;308.60;62.60;;;;;;;-1.35;75.50;100124.31;340655;28;1472;-69
2022/01/23 00:32:26;;;;;;;308.00;62.40;;;;;;;-1.36;74.76;100116.59;338631;28;1220;-69
2022/01/23 00:32:37;;;;;;;309.35;62.72;;;;;;;-1.37;75.07;100117.44;338289;28;1407;-69
2022/01/23 00:32:47;;;;;;;310.20;63.13;;;;;;;-1.35;74.73;100116.63;336021;29;1334;-69
2022/01/23 00:33:00;;;;;;;311.55;63.83;;;;;;;-1.33;75.41;100120.91;340573;28;897;-69
2022/01/23 00:33:11;;;;;;;311.05;63.30;;;;;;;-1.34;74.96;100117.50;340924;28;1315;-69
2022/01/23 00:33:23;;;;;;;310.50;62.83;;;;;;;-1.33;74.91;100114.09;341372;28;1340;-69
2022/01/23 00:33:33;;;;;;;310.17;62.10;;;;;;;-1.32;75.06;100117.50;340261;28;1399;-69
2022/01/23 00:33:43;;;;;;;309.85;62.05;;;;;;;-1.32;75.21;100120.94;340279;28;1257;-69
2022/01/23 00:33:54;;;;;;;309.23;61.30;;;;;;;-1.30;75.04;100119.25;339259;28;1363;-69
2022/01/23 00:34:06;;;;;;;307.35;60.78;;;;;;;-1.32;75.07;100120.94;340487;28;1345;-69
2022/01/23 00:34:17;;;;;;;309.27;61.60;;;;;;;-1.30;74.85;100115.81;342017;28;1396;-69
2022/01/23 00:34:27;;;;;;;310.80;62.30;;;;;;;-1.36;74.67;100116.59;341947;28;849;-69
2022/01/23 00:34:38;;;;;;;311.60;63.13;;;;;;;-1.34;74.50;100122.63;337779;29;1903;-69
2022/01/23 00:34:48;;;;;;;309.92;63.40;;;;;;;-1.35;75.37;100121.75;338665;28;1405;-69
2022/01/23 00:34:58;;;;;;;310.57;63.93;;;;;;;-1.37;74.83;100115.75;337621;29;1197;-69
2022/01/23 00:35:09;;;;;;;310.33;63.53;;;;;;;-1.35;74.87;100123.47;339357;29;1237;-69
2022/01/23 00:35:19;;;;;;;311.03;62.83;;;;;;;-1.35;74.96;100115.75;339067;28;1535;-69
2022/01/23 00:35:30;;;;;;;310.98;62.83;;;;;;;-1.36;74.91;100124.31;341874;28;1467;-69
2022/01/23 00:35:42;;;;;;;309.55;62.28;;;;;;;-1.34;74.61;100127.75;339024;29;1026;-69
2022/01/23 00:35:53;;;;;;;308.55;63.20;;;;;;;-1.36;75.12;100124.31;339230;28;1418;-69
2022/01/23 00:36:04;;;;;;;311.08;63.78;;;;;;;-1.35;75.30;100126.03;340778;28;1579;-69
2022/01/23 00:36:14;;;;;;;311.50;63.80;;;;;;;-1.37;75.28;100122.56;339102;28;1491;-69
2022/01/23 00:36:26;;;;;;;312.98;63.72;;;;;;;-1.36;74.87;100124.31;340301;28;1276;-70
2022/01/23 00:36:36;;;;;;;311.75;63.45;;;;;;;-1.37;74.88;100117.44;341392;28;1316;-70
2022/01/23 00:36:47;;;;;;;311.17;63.67;;;;;;;-1.35;74.72;100126.03;339282;28;1360;-70
2022/01/23 00:36:57;;;;;;;310.07;62.57;;;;;;;-1.35;74.94;100120.91;337796;29;743;-70
2022/01/23 00:37:07;;;;;;;309.27;62.22;;;;;;;-1.34;75.02;100117.50;337911;28;1411;-69
2022/01/23 00:37:19;;;;;;;308.67;61.70;;;;;;;-1.35;74.95;100126.88;339002;28;1286;-69
2022/01/23 00:37:29;;;;;;;307.33;62.05;;;;;;;-1.33;75.02;100121.78;338701;28;1451;-69
2022/01/23 00:37:40;;;;;;;308.50;63.30;;;;;;;-1.34;75.19;100117.50;338501;28;976;-69
2022/01/23 00:37:50;;;;;;;308.42;63.03;;;;;;;-1.35;74.65;100120.91;340234;28;1359;-69
2022/01/23 00:38:02;;;;;;;308.87;63.30;;;;;;;-1.36;75.17;100119.16;339007;28;1361;-69
2022/01/23 00:38:13;;;;;;;309.67;63.33;;;;;;;-1.34;74.96;100117.50;337851;29;1126;-69
2022/01/23 00:38:23;;;;;;;312.92;64.88;;;;;;;-1.38;75.12;100120.84;343032;28;1116;-70
2022/01/23 00:38:33;;;;;;;312.83;63.87;;;;;;;-1.39;74.83;100125.13;342541;28;1493;-69
2022/01/23 00:38:44;;;;;;;311.45;63.53;;;;;;;-1.41;75.07;100125.94;342708;28;1260;-69
2022/01/23 00:38:55;;;;;;;310.17;62.73;;;;;;;-1.43;74.88;100118.22;340533;28;1216;-69
2022/01/23 00:39:06;;;;;;;309.23;62.17;;;;;;;-1.42;75.41;100119.06;339413;28;1416;-69
2022/01/23 00:39:16;;;;;;;307.93;61.07;;;;;;;-1.42;75.03;100119.06;339324;28;1242;-69
2022/01/23 00:39:26;;;;;;;308.00;61.08;;;;;;;-1.40;75.14;100123.38;339081;29;889;-69
2022/01/23 00:39:37;;;;;;;310.10;62.13;;;;;;;-1.38;74.83;100120.84;338752;28;1452;-69
2022/01/23 00:39:47;;;;;;;310.97;63.43;;;;;;;-1.40;74.68;100117.38;339723;28;1307;-69
2022/01/23 00:39:57;;;;;;;310.08;62.90;;;;;;;-1.37;74.48;100123.44;342263;28;1631;-69
2022/01/23 00:40:08;;;;;;;310.17;63.03;;;;;;;-1.37;74.91;100127.72;341686;28;1341;-69
2022/01/23 00:40:19;;;;;;;310.40;61.92;;;;;;;-1.36;74.50;100119.16;339113;28;1416;-70
2022/01/23 00:40:30;;;;;;;310.43;61.43;;;;;;;-1.35;74.31;100126.03;338984;28;1347;-70
2022/01/23 00:40:41;;;;;;;311.20;61.72;;;;;;;-1.35;74.14;100128.59;337663;28;1399;-70
2022/01/23 00:40:51;;;;;;;311.00;61.83;;;;;;;-1.33;74.29;100129.47;340073;28;1411;-70
2022/01/23 00:41:02;;;;;;;311.43;62.43;;;;;;;-1.33;74.27;100123.47;337179;29;1306;-70
2022/01/23 00:41:12;;;;;;;310.00;62.63;;;;;;;-1.33;74.35;100124.34;340412;28;1367;-69
2022/01/23 00:41:22;;;;;;;310.10;62.77;;;;;;;-1.32;74.22;100120.94;343121;28;1413;-69
2022/01/23 00:41:33;;;;;;;309.60;62.80;;;;;;;-1.33;74.33;100126.91;341741;28;1430;-69
2022/01/23 00:41:43;;;;;;;310.65;62.67;;;;;;;-1.37;74.53;100123.44;339838;28;1300;-69
2022/01/23 00:41:54;;;;;;;309.93;62.23;;;;;;;-1.38;73.79;100125.97;340197;28;921;-69
2022/01/23 00:42:04;;;;;;;308.88;61.58;;;;;;;-1.38;74.19;100126.84;338571;28;1435;-69
2022/01/23 00:42:15;;;;;;;309.80;62.00;;;;;;;-1.38;74.14;100123.41;338687;28;1380;-69
2022/01/23 00:42:27;;;;;;;309.77;62.15;;;;;;;-1.40;74.04;100123.38;339017;28;1135;-69
2022/01/23 00:42:37;;;;;;;311.33;62.63;;;;;;;-1.39;73.64;100124.25;339494;28;1287;-69
2022/01/23 00:42:48;;;;;;;311.77;63.17;;;;;;;-1.38;74.05;100125.97;339662;28;1466;-69
2022/01/23 00:43:00;;;;;;;312.63;63.60;;;;;;;-1.39;73.98;100125.13;340447;28;872;-69
2022/01/23 00:43:31;;;;;;;311.52;63.10;;;;;;;-1.36;73.97;100121.72;339264;28;882;-69
2022/01/23 00:43:42;;;;;;;310.20;61.22;;;;;;;-1.37;73.94;100123.44;339321;29;1597;-69
2022/01/23 00:43:54;;;;;;;309.90;61.17;;;;;;;-1.35;74.26;100131.16;341510;28;1490;-69
2022/01/23 00:44:04;;;;;;;310.33;62.45;;;;;;;-1.35;74.06;100126.03;340641;28;1317;-69
2022/01/23 00:44:14;;;;;;;310.70;62.70;;;;;;;-1.33;73.93;100124.34;338884;28;1206;-70
2022/01/23 00:44:27;;;;;;;310.48;62.63;;;;;;;-1.32;73.93;100131.22;338882;29;1300;-69
2022/01/23 00:44:38;;;;;;;311.98;62.95;;;;;;;-1.32;73.35;100127.78;341281;28;1396;-69
2022/01/23 00:44:54;;;;;;;312.35;62.58;;;;;;;-1.36;73.94;100126.88;338618;28;2224;-69
2022/01/23 00:45:26;;;;;;;311.98;62.63;;;;;;;-1.38;73.33;100128.53;338921;28;1376;-69
2022/01/23 00:45:43;;;;;;;310.52;61.75;;;;;;;-1.42;73.13;100126.78;339099;28;1344;-69
2022/01/23 00:46:08;;;;;;;310.83;61.15;;;;;;;-1.41;73.53;100125.94;337561;28;962;-69
2022/01/23 00:46:35;;;;;;;309.80;61.78;;;;;;;-1.40;73.46;100127.66;338872;28;1376;-69
2022/01/23 00:46:50;;;;;;;309.25;60.90;;;;;;;-1.39;73.16;100134.53;340105;28;1376;-69
2022/01/23 00:47:04;;;;;;;310.70;60.92;;;;;;;-1.38;72.54;100126.84;340088;28;1583;-69
2022/01/23 00:47:15;;;;;;;311.88;61.63;;;;;;;-1.37;72.53;100132.84;338782;28;1261;-69
2022/01/23 00:47:25;;;;;;;312.42;62.12;;;;;;;-1.36;72.49;100130.31;336409;29;834;-69
2022/01/23 00:47:36;;;;;;;312.23;63.03;;;;;;;-1.37;72.19;100133.72;336085;29;1408;-70
2022/01/23 00:47:46;;;;;;;311.97;62.83;;;;;;;-1.37;71.86;100133.72;339398;28;1427;-69
2022/01/23 00:48:07;;;;;;;311.23;62.83;;;;;;;-1.35;72.29;100141.44;340131;28;806;-69
2022/01/23 00:48:23;;;;;;;312.27;60.97;;;;;;;-1.38;72.04;100133.69;340857;28;1245;-69
2022/01/23 00:48:37;;;;;;;312.15;61.05;;;;;;;-1.40;72.09;100125.09;339924;28;1545;-69
2022/01/23 00:49:24;;;;;;;311.73;61.45;;;;;;;-1.44;71.53;100126.75;342406;28;1383;-69
2022/01/23 00:49:35;;;;;;;313.70;61.97;;;;;;;-1.42;71.72;100129.34;338159;29;1282;-69
2022/01/23 00:49:45;;;;;;;314.95;62.28;;;;;;;-1.42;71.18;100130.19;338962;29;1368;-69
2022/01/23 00:49:56;;;;;;;313.87;61.80;;;;;;;-1.41;71.44;100131.06;338877;28;1194;-69
2022/01/23 00:50:06;;;;;;;313.43;61.67;;;;;;;-1.43;71.32;100133.59;336484;29;1325;-69
2022/01/23 00:50:17;;;;;;;313.00;61.20;;;;;;;-1.42;70.72;100131.91;337594;29;1342;-70
2022/01/23 00:50:28;;;;;;;313.40;61.13;;;;;;;-1.42;71.07;100124.19;340380;28;823;-70
2022/01/23 00:50:43;;;;;;;313.17;60.67;;;;;;;-1.42;71.25;100126.78;337479;28;1585;-69
2022/01/23 00:50:54;;;;;;;312.08;60.70;;;;;;;-1.43;70.67;100127.59;340178;28;1452;-70
2022/01/23 00:51:04;;;;;;;310.83;61.10;;;;;;;-1.44;70.67;100131.00;337358;29;1509;-70
2022/01/23 00:51:14;;;;;;;309.33;60.87;;;;;;;-1.46;70.41;100127.56;337632;29;1464;-69
2022/01/23 00:51:29;;;;;;;309.70;61.47;;;;;;;-1.47;70.66;100131.84;339059;28;1102;-69
2022/01/23 00:51:39;;;;;;;312.58;62.15;;;;;;;-1.46;70.70;100132.69;341547;28;1586;-69
2022/01/23 00:51:51;;;;;;;312.23;61.63;;;;;;;-1.46;70.79;100132.69;340179;28;1460;-69
2022/01/23 00:52:01;;;;;;;310.80;61.67;;;;;;;-1.44;70.43;100136.16;337617;29;1266;-69
2022/01/23 00:52:12;;;;;;;311.77;61.17;;;;;;;-1.45;70.63;100129.28;339103;28;861;-69
2022/01/23 00:52:22;;;;;;;313.02;62.15;;;;;;;-1.43;70.78;100130.19;338469;28;1428;-69
2022/01/23 00:52:32;;;;;;;312.87;62.87;;;;;;;-1.41;70.30;100136.19;337253;29;1388;-69
2022/01/23 00:52:43;;;;;;;312.33;63.53;;;;;;;-1.42;70.47;100131.91;337427;28;1435;-69
2022/01/23 00:52:53;;;;;;;310.73;62.57;;;;;;;-1.42;70.82;100129.34;337455;28;1431;-69
2022/01/23 00:53:05;;;;;;;308.02;61.03;;;;;;;-1.40;70.17;100132.78;340031;28;1511;-69
2022/01/23 00:53:15;;;;;;;308.40;61.20;;;;;;;-1.41;70.49;100131.06;341285;28;1181;-69
2022/01/23 00:53:26;;;;;;;308.58;62.10;;;;;;;-1.40;70.25;100132.78;344143;28;1326;-69
2022/01/23 00:53:36;;;;;;;309.33;62.50;;;;;;;-1.42;70.15;100129.34;342101;28;1372;-69
2022/01/23 00:53:47;;;;;;;308.70;62.27;;;;;;;-1.41;69.43;100131.94;341253;28;1459;-69
2022/01/23 00:53:57;;;;;;;308.67;62.20;;;;;;;-1.42;69.56;100137.03;341251;28;1304;-69
2022/01/23 00:54:10;;;;;;;308.77;62.30;;;;;;;-1.41;69.64;100125.94;340034;28;1472;-70
2022/01/23 00:54:20;;;;;;;308.02;62.22;;;;;;;-1.44;69.45;100136.16;337980;28;1274;-69
2022/01/23 00:54:31;;;;;;;308.63;62.57;;;;;;;-1.47;69.35;100126.69;337724;29;1425;-69
2022/01/23 00:54:41;;;;;;;310.13;62.38;;;;;;;-1.46;69.73;100135.25;337781;29;885;-68
2022/01/23 00:54:52;;;;;;;310.17;62.10;;;;;;;-1.45;69.82;100135.28;338806;28;1525;-68
2022/01/23 00:55:04;;;;;;;309.17;60.90;;;;;;;-1.43;69.47;100132.75;341340;28;1305;-68
2022/01/23 00:55:15;;;;;;;307.88;60.58;;;;;;;-1.44;69.08;100136.16;341395;28;779;-69
2022/01/23 00:55:25;;;;;;;307.30;60.40;;;;;;;-1.45;69.55;100139.56;338768;29;854;-69
2022/01/23 00:55:39;;;;;;;307.60;61.20;;;;;;;-1.45;69.45;100126.72;340229;28;1404;-69
2022/01/23 00:55:50;;;;;;;307.70;61.80;;;;;;;-1.45;69.54;100129.28;339370;28;1285;-69
2022/01/23 00:56:00;;;;;;;309.35;62.05;;;;;;;-1.46;69.10;100128.44;340175;28;1359;-69
2022/01/23 00:56:11;;;;;;;314.27;63.17;;;;;;;-1.46;69.32;100133.56;340433;28;822;-69
2022/01/23 00:56:21;;;;;;;315.17;63.55;;;;;;;-1.45;69.41;100129.28;337587;29;1523;-69
2022/01/23 00:56:32;;;;;;;315.17;63.47;;;;;;;-1.45;69.45;100135.28;339968;28;1689;-69
2022/01/23 00:56:43;;;;;;;309.63;61.63;;;;;;;-1.44;68.71;100131.00;341359;28;1554;-70
2022/01/23 00:56:54;;;;;;;307.10;61.23;;;;;;;-1.45;68.82;100129.28;337337;29;1563;-70
2022/01/23 00:57:04;;;;;;;307.35;61.60;;;;;;;-1.46;68.96;100127.56;338341;29;1377;-70
2022/01/23 00:57:15;;;;;;;308.02;62.00;;;;;;;-1.46;69.29;100136.13;336991;28;1357;-70
2022/01/23 00:57:25;;;;;;;308.07;61.83;;;;;;;-1.46;68.88;100133.56;338669;28;1441;-70
2022/01/23 00:57:36;;;;;;;307.33;61.42;;;;;;;-1.45;69.14;100129.28;337133;28;1344;-69
2022/01/23 00:57:46;;;;;;;307.60;61.87;;;;;;;-1.44;69.04;100134.44;340101;28;1311;-69
2022/01/23 00:57:56;;;;;;;309.33;61.90;;;;;;;-1.47;68.70;100131.84;339660;28;857;-69
2022/01/23 00:58:07;;;;;;;308.63;61.50;;;;;;;-1.49;69.25;100130.94;339928;28;1542;-69
2022/01/23 00:58:18;;;;;;;309.33;61.80;;;;;;;-1.50;68.76;100133.47;339911;28;1131;-69
2022/01/23 00:58:28;;;;;;;308.65;62.58;;;;;;;-1.50;68.99;100136.03;340241;28;830;-69
2022/01/23 00:58:39;;;;;;;308.50;62.95;;;;;;;-1.51;69.44;100135.19;338919;28;1523;-69
2022/01/23 00:58:49;;;;;;;307.73;62.70;;;;;;;-1.49;69.02;100127.50;340095;28;1313;-69
2022/01/23 00:59:00;;;;;;;307.92;62.53;;;;;;;-1.49;69.12;100128.38;338858;28;1379;-69
2022/01/23 00:59:10;;;;;;;308.47;62.33;;;;;;;-1.48;68.74;100124.97;341534;28;1514;-70
2022/01/23 00:59:21;;;;;;;308.43;61.93;;;;;;;-1.46;68.75;100127.56;341275;28;1498;-69
2022/01/23 00:59:31;;;;;;;308.63;61.80;;;;;;;-1.48;69.03;100134.38;340352;28;1479;-69
2022/01/23 00:59:42;;;;;;;309.55;62.15;;;;;;;-1.48;68.26;100134.38;339096;29;874;-70
2022/01/23 00:59:52;;;;;;;308.97;62.43;;;;;;;-1.49;69.05;100136.06;339052;28;1308;-70
2022/01/23 01:00:04;;;;;;;307.55;63.03;;;;;;;-1.49;68.79;100130.06;340705;28;1260;-69
2022/01/23 01:00:15;;;;;;;305.88;62.03;;;;;;;-1.48;68.78;100129.25;341561;28;976;-69
2022/01/23 01:00:25;;;;;;;306.70;61.58;;;;;;;-1.46;68.59;100132.69;342516;28;1242;-69
2022/01/23 01:00:36;;;;;;;305.47;60.63;;;;;;;-1.47;68.27;100134.41;340577;28;1434;-69
2022/01/23 01:00:47;;;;;;;306.13;61.13;;;;;;;-1.46;68.11;100127.56;337367;29;1278;-70
2022/01/23 01:00:57;;;;;;;304.37;60.17;;;;;;;-1.46;68.49;100132.69;340385;28;1342;-69
2022/01/23 01:01:07;;;;;;;306.27;61.43;;;;;;;-1.47;68.36;100125.84;339823;28;1479;-69
2022/01/23 01:01:18;;;;;;;306.92;61.75;;;;;;;-1.49;68.48;100128.38;340115;28;1352;-69
2022/01/23 01:01:28;;;;;;;308.17;62.58;;;;;;;-1.49;68.05;100130.06;341455;28;1043;-69
2022/01/23 01:01:39;;;;;;;307.30;61.30;;;;;;;-1.50;68.01;100131.78;339472;28;1578;-69
2022/01/23 01:01:49;;;;;;;307.70;61.38;;;;;;;-1.50;68.11;100125.78;339958;28;1436;-68
2022/01/23 01:02:00;;;;;;;308.80;61.57;;;;;;;-1.52;67.87;100120.63;341438;28;1459;-68
2022/01/23 01:02:10;;;;;;;308.30;62.08;;;;;;;-1.51;67.91;100122.34;336401;29;1432;-69
2022/01/23 01:02:20;;;;;;;308.57;62.47;;;;;;;-1.49;68.14;100127.50;335638;29;1334;-69
2022/01/23 01:02:31;;;;;;;307.40;62.27;;;;;;;-1.49;68.01;100130.06;336041;29;1255;-69
2022/01/23 01:02:42;;;;;;;307.77;61.80;;;;;;;-1.49;67.93;100127.50;338461;28;837;-69
2022/01/23 01:02:52;;;;;;;307.23;60.88;;;;;;;-1.48;68.26;100124.09;338575;28;1494;-69
2022/01/23 01:03:03;;;;;;;307.87;61.47;;;;;;;-1.49;68.04;100128.38;337793;29;1404;-69
2022/01/23 01:03:13;;;;;;;307.23;61.00;;;;;;;-1.50;68.21;100125.78;337705;29;1170;-69
2022/01/23 01:03:23;;;;;;;307.98;61.03;;;;;;;-1.47;68.50;100128.41;337384;28;1479;-69
2022/01/23 01:03:34;;;;;;;308.00;60.37;;;;;;;-1.48;68.10;100132.66;337851;28;1266;-69
2022/01/23 01:03:44;;;;;;;308.60;60.77;;;;;;;-1.48;68.34;100127.53;338574;28;1364;-69
2022/01/23 01:03:55;;;;;;;308.90;61.38;;;;;;;-1.48;68.38;100139.50;340201;28;1226;-69
2022/01/23 01:04:05;;;;;;;307.90;61.60;;;;;;;-1.48;68.26;100129.25;337640;28;1425;-69
2022/01/23 01:04:15;;;;;;;307.97;61.77;;;;;;;-1.49;68.08;100127.50;339120;28;1374;-69
2022/01/23 01:04:26;;;;;;;306.70;61.60;;;;;;;-1.51;68.28;100126.63;340150;28;893;-69
2022/01/23 01:04:36;;;;;;;308.02;62.17;;;;;;;-1.50;67.98;100123.22;338476;28;1377;-69
2022/01/23 01:04:47;;;;;;;307.10;62.13;;;;;;;-1.48;68.09;100124.97;338375;29;1421;-69
2022/01/23 01:04:57;;;;;;;307.50;61.72;;;;;;;-1.46;68.17;100133.56;340314;28;1236;-69
2022/01/23 01:05:08;;;;;;;307.93;62.57;;;;;;;-1.46;68.15;100125.84;340497;28;1554;-69
2022/01/23 01:05:19;;;;;;;307.33;62.40;;;;;;;-1.45;67.95;100129.28;340319;28;1466;-69
2022/01/23 01:05:29;;;;;;;306.55;62.30;;;;;;;-1.47;67.48;100124.13;340631;28;876;-69
2022/01/23 01:05:39;;;;;;;306.70;61.42;;;;;;;-1.46;67.68;100132.69;339776;28;1475;-69
2022/01/23 01:05:50;;;;;;;306.43;61.33;;;;;;;-1.45;67.56;100131.84;340827;28;1509;-69